KCRP

Corpus Christi International Airport

Corpus Christi, Texas, USA
METAR KCRP 232251Z 11011KT 10SM FEW009 BKN090 BKN200 OVC250 17/M03 A3023 RMK AO2 SLP235 FU FEW009 T01671033
Observed Flight Rules
Jan-23 @ 22:51 UTC (24 minutes ago) Visual Flight Rules
Wind Visibility Clouds
110° at 11 knots 10 miles
  • Few at 900' AGL
  • Broken at 9,000' AGL
  • Broken at 20,000' AGL
  • Overcast at 25,000' AGL
Temperatures Readings
Current 17°C / 63°F
Dewpoint -3°C / 27°F
Humidity 25%
Altimeter 30.23" Hg
Pressure 1023.5 hPa
Elevation 14
METAR KCRP 232251Z 11011KT 10SM FEW009 BKN090 BKN200 OVC250 17/M03 A3023 RMK AO2 SLP235 FU FEW009 T01671033
Observed Flight Rules
Jan-23 @ 22:51 UTC
(24 minutes ago)
VFR
Wind Visibility
110° at 11 knots 10 miles
Clouds
  • Few at 900' AGL
  • Broken at 9,000' AGL
  • Broken at 20,000' AGL
  • Overcast at 25,000' AGL
Temperature Dewpoint
17°C / 63°F -3°C / 27°F
Humidity Altimeter Pressure
25% 30.23" Hg 1023.5 hPa